sensor_id;sensor_type;location;lat;lon;timestamp;P1;durP1;ratioP1;P2;durP2;ratioP2
64244;SDS011;50584;29.058;-110.966;2023-07-29T00:01:12;1.58;;;1.40;;
64244;SDS011;50584;29.058;-110.966;2023-07-29T00:03:37;3.72;;;1.60;;
64244;SDS011;50584;29.058;-110.966;2023-07-29T00:06:03;7.18;;;2.05;;
64244;SDS011;50584;29.058;-110.966;2023-07-29T00:08:29;6.57;;;1.88;;
64244;SDS011;50584;29.058;-110.966;2023-07-29T00:10:55;1.90;;;1.70;;
64244;SDS011;50584;29.058;-110.966;2023-07-29T00:13:20;2.88;;;1.40;;
64244;SDS011;50584;29.058;-110.966;2023-07-29T00:15:46;3.70;;;1.52;;
64244;SDS011;50584;29.058;-110.966;2023-07-29T00:18:12;5.18;;;1.65;;
64244;SDS011;50584;29.058;-110.966;2023-07-29T00:20:38;1.80;;;1.33;;
64244;SDS011;50584;29.058;-110.966;2023-07-29T00:23:04;3.70;;;1.30;;
64244;SDS011;50584;29.058;-110.966;2023-07-29T00:25:30;4.15;;;1.38;;
64244;SDS011;50584;29.058;-110.966;2023-07-29T00:27:55;1.70;;;1.48;;
64244;SDS011;50584;29.058;-110.966;2023-07-29T00:30:21;2.63;;;2.17;;
64244;SDS011;50584;29.058;-110.966;2023-07-29T00:32:47;5.75;;;2.22;;
64244;SDS011;50584;29.058;-110.966;2023-07-29T00:35:13;4.32;;;2.50;;
64244;SDS011;50584;29.058;-110.966;2023-07-29T00:37:39;11.50;;;1.75;;
64244;SDS011;50584;29.058;-110.966;2023-07-29T00:40:09;5.28;;;1.88;;
64244;SDS011;50584;29.058;-110.966;2023-07-29T00:42:38;1.77;;;1.35;;
64244;SDS011;50584;29.058;-110.966;2023-07-29T00:45:04;3.45;;;1.67;;
64244;SDS011;50584;29.058;-110.966;2023-07-29T00:47:31;2.95;;;1.90;;
64244;SDS011;50584;29.058;-110.966;2023-07-29T00:49:57;3.92;;;1.42;;
64244;SDS011;50584;29.058;-110.966;2023-07-29T00:52:22;3.97;;;1.73;;
64244;SDS011;50584;29.058;-110.966;2023-07-29T00:54:48;3.88;;;1.45;;
64244;SDS011;50584;29.058;-110.966;2023-07-29T00:57:14;4.07;;;1.60;;
64244;SDS011;50584;29.058;-110.966;2023-07-29T00:59:40;4.53;;;1.48;;
64244;SDS011;50584;29.058;-110.966;2023-07-29T01:02:07;6.88;;;1.80;;
64244;SDS011;50584;29.058;-110.966;2023-07-29T01:04:33;7.15;;;1.50;;
64244;SDS011;50584;29.058;-110.966;2023-07-29T01:07:05;4.20;;;1.50;;
64244;SDS011;50584;29.058;-110.966;2023-07-29T01:09:39;5.65;;;1.60;;
64244;SDS011;50584;29.058;-110.966;2023-07-29T01:14:41;7.45;;;2.22;;
64244;SDS011;50584;29.058;-110.966;2023-07-29T01:17:13;3.45;;;1.50;;
64244;SDS011;50584;29.058;-110.966;2023-07-29T01:22:07;2.15;;;1.20;;
64244;SDS011;50584;29.058;-110.966;2023-07-29T01:24:33;4.15;;;1.50;;
64244;SDS011;50584;29.058;-110.966;2023-07-29T01:26:59;1.85;;;1.23;;
64244;SDS011;50584;29.058;-110.966;2023-07-29T01:29:27;6.95;;;1.58;;
64244;SDS011;50584;29.058;-110.966;2023-07-29T01:31:54;4.20;;;1.80;;
64244;SDS011;50584;29.058;-110.966;2023-07-29T01:34:26;2.97;;;1.60;;
64244;SDS011;50584;29.058;-110.966;2023-07-29T01:36:54;6.10;;;1.85;;
64244;SDS011;50584;29.058;-110.966;2023-07-29T01:39:22;3.63;;;1.50;;
64244;SDS011;50584;29.058;-110.966;2023-07-29T01:41:49;2.00;;;1.50;;
64244;SDS011;50584;29.058;-110.966;2023-07-29T01:44:16;5.03;;;2.00;;
64244;SDS011;50584;29.058;-110.966;2023-07-29T01:46:43;1.80;;;1.42;;
64244;SDS011;50584;29.058;-110.966;2023-07-29T01:49:09;2.17;;;1.50;;
64244;SDS011;50584;29.058;-110.966;2023-07-29T01:51:35;2.55;;;1.63;;
64244;SDS011;50584;29.058;-110.966;2023-07-29T01:54:01;7.90;;;1.83;;
64244;SDS011;50584;29.058;-110.966;2023-07-29T01:56:26;6.80;;;1.52;;
64244;SDS011;50584;29.058;-110.966;2023-07-29T01:58:52;3.13;;;1.60;;
64244;SDS011;50584;29.058;-110.966;2023-07-29T02:01:18;4.75;;;2.10;;
64244;SDS011;50584;29.058;-110.966;2023-07-29T02:03:44;3.95;;;1.90;;
64244;SDS011;50584;29.058;-110.966;2023-07-29T02:06:09;4.88;;;1.95;;
64244;SDS011;50584;29.058;-110.966;2023-07-29T02:08:35;3.03;;;1.83;;
64244;SDS011;50584;29.058;-110.966;2023-07-29T02:11:01;2.58;;;1.73;;
64244;SDS011;50584;29.058;-110.966;2023-07-29T02:13:26;4.60;;;1.75;;
64244;SDS011;50584;29.058;-110.966;2023-07-29T02:15:52;5.32;;;2.55;;
64244;SDS011;50584;29.058;-110.966;2023-07-29T02:18:18;6.13;;;2.28;;
64244;SDS011;50584;29.058;-110.966;2023-07-29T02:20:44;7.88;;;2.20;;
64244;SDS011;50584;29.058;-110.966;2023-07-29T02:23:14;11.02;;;2.28;;
64244;SDS011;50584;29.058;-110.966;2023-07-29T02:25:41;3.08;;;1.90;;
64244;SDS011;50584;29.058;-110.966;2023-07-29T02:28:07;7.20;;;1.92;;
64244;SDS011;50584;29.058;-110.966;2023-07-29T02:30:32;4.18;;;1.90;;
64244;SDS011;50584;29.058;-110.966;2023-07-29T02:32:58;4.55;;;1.67;;
64244;SDS011;50584;29.058;-110.966;2023-07-29T02:35:26;3.67;;;1.83;;
64244;SDS011;50584;29.058;-110.966;2023-07-29T02:37:52;4.70;;;1.92;;
64244;SDS011;50584;29.058;-110.966;2023-07-29T02:40:18;3.35;;;1.80;;
64244;SDS011;50584;29.058;-110.966;2023-07-29T02:42:46;6.50;;;4.85;;
64244;SDS011;50584;29.058;-110.966;2023-07-29T02:45:12;4.18;;;2.20;;
64244;SDS011;50584;29.058;-110.966;2023-07-29T02:47:37;6.85;;;2.30;;
64244;SDS011;50584;29.058;-110.966;2023-07-29T02:50:03;4.75;;;2.30;;
64244;SDS011;50584;29.058;-110.966;2023-07-29T02:52:30;2.58;;;1.80;;
64244;SDS011;50584;29.058;-110.966;2023-07-29T02:54:55;3.13;;;2.00;;
64244;SDS011;50584;29.058;-110.966;2023-07-29T02:57:21;5.15;;;1.77;;
64244;SDS011;50584;29.058;-110.966;2023-07-29T02:59:47;6.70;;;1.80;;
64244;SDS011;50584;29.058;-110.966;2023-07-29T03:02:13;5.03;;;2.40;;
64244;SDS011;50584;29.058;-110.966;2023-07-29T03:04:41;4.85;;;1.90;;
64244;SDS011;50584;29.058;-110.966;2023-07-29T03:07:07;2.90;;;2.10;;
64244;SDS011;50584;29.058;-110.966;2023-07-29T03:09:32;5.78;;;2.28;;
64244;SDS011;50584;29.058;-110.966;2023-07-29T03:11:58;2.85;;;2.20;;
64244;SDS011;50584;29.058;-110.966;2023-07-29T03:14:24;7.97;;;2.60;;
64244;SDS011;50584;29.058;-110.966;2023-07-29T03:16:50;6.57;;;2.30;;
64244;SDS011;50584;29.058;-110.966;2023-07-29T03:19:16;7.22;;;2.50;;
64244;SDS011;50584;29.058;-110.966;2023-07-29T03:21:41;9.30;;;2.58;;
64244;SDS011;50584;29.058;-110.966;2023-07-29T03:24:07;4.15;;;2.15;;
64244;SDS011;50584;29.058;-110.966;2023-07-29T03:26:33;6.00;;;2.30;;
64244;SDS011;50584;29.058;-110.966;2023-07-29T03:28:59;9.00;;;2.85;;
64244;SDS011;50584;29.058;-110.966;2023-07-29T03:31:25;4.22;;;1.98;;
64244;SDS011;50584;29.058;-110.966;2023-07-29T03:33:50;5.53;;;2.30;;
64244;SDS011;50584;29.058;-110.966;2023-07-29T03:36:16;7.88;;;2.47;;
64244;SDS011;50584;29.058;-110.966;2023-07-29T03:38:42;4.97;;;2.67;;
64244;SDS011;50584;29.058;-110.966;2023-07-29T03:41:10;7.28;;;2.90;;
64244;SDS011;50584;29.058;-110.966;2023-07-29T03:43:35;6.75;;;2.67;;
64244;SDS011;50584;29.058;-110.966;2023-07-29T03:46:01;8.00;;;2.80;;
64244;SDS011;50584;29.058;-110.966;2023-07-29T03:48:27;2.42;;;2.22;;
64244;SDS011;50584;29.058;-110.966;2023-07-29T03:50:53;2.50;;;2.30;;
64244;SDS011;50584;29.058;-110.966;2023-07-29T03:53:19;3.10;;;2.30;;
64244;SDS011;50584;29.058;-110.966;2023-07-29T03:55:45;7.65;;;2.97;;
64244;SDS011;50584;29.058;-110.966;2023-07-29T03:58:12;5.40;;;2.22;;
64244;SDS011;50584;29.058;-110.966;2023-07-29T04:00:37;3.30;;;2.50;;
64244;SDS011;50584;29.058;-110.966;2023-07-29T04:03:03;5.70;;;2.67;;
64244;SDS011;50584;29.058;-110.966;2023-07-29T04:05:29;4.05;;;2.35;;
64244;SDS011;50584;29.058;-110.966;2023-07-29T04:07:55;11.55;;;2.90;;
64244;SDS011;50584;29.058;-110.966;2023-07-29T04:10:21;7.68;;;2.53;;
64244;SDS011;50584;29.058;-110.966;2023-07-29T04:12:47;6.72;;;2.22;;
64244;SDS011;50584;29.058;-110.966;2023-07-29T04:15:12;7.07;;;2.50;;
64244;SDS011;50584;29.058;-110.966;2023-07-29T04:17:38;6.43;;;2.20;;
64244;SDS011;50584;29.058;-110.966;2023-07-29T04:20:04;14.02;;;3.50;;
64244;SDS011;50584;29.058;-110.966;2023-07-29T04:22:30;13.88;;;3.63;;
64244;SDS011;50584;29.058;-110.966;2023-07-29T04:24:56;10.38;;;3.35;;
64244;SDS011;50584;29.058;-110.966;2023-07-29T04:27:21;10.77;;;3.22;;
64244;SDS011;50584;29.058;-110.966;2023-07-29T04:29:47;11.43;;;3.47;;
64244;SDS011;50584;29.058;-110.966;2023-07-29T04:32:13;10.52;;;3.05;;
64244;SDS011;50584;29.058;-110.966;2023-07-29T04:34:39;3.90;;;2.83;;
64244;SDS011;50584;29.058;-110.966;2023-07-29T04:37:04;3.95;;;2.50;;
64244;SDS011;50584;29.058;-110.966;2023-07-29T04:39:30;8.30;;;2.20;;
64244;SDS011;50584;29.058;-110.966;2023-07-29T04:41:56;5.90;;;2.30;;
64244;SDS011;50584;29.058;-110.966;2023-07-29T04:44:22;4.57;;;2.40;;
64244;SDS011;50584;29.058;-110.966;2023-07-29T04:46:48;4.45;;;1.90;;
64244;SDS011;50584;29.058;-110.966;2023-07-29T04:49:14;5.20;;;2.70;;
64244;SDS011;50584;29.058;-110.966;2023-07-29T04:51:39;6.90;;;2.50;;
64244;SDS011;50584;29.058;-110.966;2023-07-29T04:54:05;7.85;;;2.53;;
64244;SDS011;50584;29.058;-110.966;2023-07-29T04:56:31;5.93;;;2.80;;
64244;SDS011;50584;29.058;-110.966;2023-07-29T04:58:57;6.65;;;2.55;;
64244;SDS011;50584;29.058;-110.966;2023-07-29T05:01:22;7.50;;;2.65;;
64244;SDS011;50584;29.058;-110.966;2023-07-29T05:03:48;10.75;;;2.88;;
64244;SDS011;50584;29.058;-110.966;2023-07-29T05:06:14;7.18;;;3.40;;
64244;SDS011;50584;29.058;-110.966;2023-07-29T05:08:40;6.13;;;2.47;;
64244;SDS011;50584;29.058;-110.966;2023-07-29T05:11:05;5.20;;;2.50;;
64244;SDS011;50584;29.058;-110.966;2023-07-29T05:13:31;2.95;;;2.22;;
64244;SDS011;50584;29.058;-110.966;2023-07-29T05:15:57;4.47;;;2.33;;
64244;SDS011;50584;29.058;-110.966;2023-07-29T05:18:23;10.88;;;2.60;;
64244;SDS011;50584;29.058;-110.966;2023-07-29T05:20:49;5.00;;;2.20;;
64244;SDS011;50584;29.058;-110.966;2023-07-29T05:23:15;5.22;;;2.78;;
64244;SDS011;50584;29.058;-110.966;2023-07-29T05:25:41;4.80;;;2.15;;
64244;SDS011;50584;29.058;-110.966;2023-07-29T05:28:06;5.47;;;2.10;;
64244;SDS011;50584;29.058;-110.966;2023-07-29T05:30:32;4.95;;;2.55;;
64244;SDS011;50584;29.058;-110.966;2023-07-29T05:33:02;7.18;;;2.30;;
64244;SDS011;50584;29.058;-110.966;2023-07-29T05:35:28;3.92;;;2.50;;
64244;SDS011;50584;29.058;-110.966;2023-07-29T05:37:54;9.48;;;2.30;;
64244;SDS011;50584;29.058;-110.966;2023-07-29T05:40:20;6.20;;;2.20;;
64244;SDS011;50584;29.058;-110.966;2023-07-29T05:42:45;6.05;;;2.13;;
64244;SDS011;50584;29.058;-110.966;2023-07-29T05:45:13;8.93;;;1.95;;
64244;SDS011;50584;29.058;-110.966;2023-07-29T05:47:38;1.95;;;1.75;;
64244;SDS011;50584;29.058;-110.966;2023-07-29T05:50:04;6.03;;;1.58;;
64244;SDS011;50584;29.058;-110.966;2023-07-29T05:52:31;4.28;;;1.77;;
64244;SDS011;50584;29.058;-110.966;2023-07-29T05:54:57;4.75;;;1.88;;
64244;SDS011;50584;29.058;-110.966;2023-07-29T05:57:22;5.97;;;1.95;;
64244;SDS011;50584;29.058;-110.966;2023-07-29T05:59:48;1.45;;;1.27;;
64244;SDS011;50584;29.058;-110.966;2023-07-29T06:02:14;1.58;;;1.27;;
64244;SDS011;50584;29.058;-110.966;2023-07-29T06:04:40;3.67;;;1.48;;
64244;SDS011;50584;29.058;-110.966;2023-07-29T06:07:06;2.97;;;1.80;;
64244;SDS011;50584;29.058;-110.966;2023-07-29T06:09:31;3.03;;;1.50;;
64244;SDS011;50584;29.058;-110.966;2023-07-29T06:11:57;1.25;;;1.15;;
64244;SDS011;50584;29.058;-110.966;2023-07-29T06:14:23;2.30;;;1.20;;
64244;SDS011;50584;29.058;-110.966;2023-07-29T06:16:49;1.17;;;1.13;;
64244;SDS011;50584;29.058;-110.966;2023-07-29T06:19:15;2.58;;;1.60;;
64244;SDS011;50584;29.058;-110.966;2023-07-29T06:21:40;2.95;;;1.38;;
64244;SDS011;50584;29.058;-110.966;2023-07-29T06:24:06;3.47;;;1.70;;
64244;SDS011;50584;29.058;-110.966;2023-07-29T06:26:32;2.83;;;1.63;;
64244;SDS011;50584;29.058;-110.966;2023-07-29T06:28:57;6.13;;;2.10;;
64244;SDS011;50584;29.058;-110.966;2023-07-29T06:31:23;3.03;;;1.63;;
64244;SDS011;50584;29.058;-110.966;2023-07-29T06:33:49;3.63;;;1.80;;
64244;SDS011;50584;29.058;-110.966;2023-07-29T06:36:15;1.83;;;1.70;;
64244;SDS011;50584;29.058;-110.966;2023-07-29T06:38:41;1.95;;;1.45;;
64244;SDS011;50584;29.058;-110.966;2023-07-29T06:41:07;2.97;;;1.90;;
64244;SDS011;50584;29.058;-110.966;2023-07-29T06:43:32;2.95;;;1.58;;
64244;SDS011;50584;29.058;-110.966;2023-07-29T06:45:59;6.45;;;1.80;;
64244;SDS011;50584;29.058;-110.966;2023-07-29T06:48:24;3.42;;;1.40;;
64244;SDS011;50584;29.058;-110.966;2023-07-29T06:50:50;1.42;;;1.30;;
64244;SDS011;50584;29.058;-110.966;2023-07-29T06:53:16;2.92;;;1.42;;
64244;SDS011;50584;29.058;-110.966;2023-07-29T06:55:42;2.00;;;1.60;;
64244;SDS011;50584;29.058;-110.966;2023-07-29T06:58:08;1.33;;;1.23;;
64244;SDS011;50584;29.058;-110.966;2023-07-29T07:00:34;1.13;;;1.00;;
64244;SDS011;50584;29.058;-110.966;2023-07-29T07:03:00;1.10;;;1.00;;
64244;SDS011;50584;29.058;-110.966;2023-07-29T07:05:26;1.67;;;1.40;;
64244;SDS011;50584;29.058;-110.966;2023-07-29T07:07:52;1.00;;;1.00;;
64244;SDS011;50584;29.058;-110.966;2023-07-29T07:10:18;1.70;;;1.10;;
64244;SDS011;50584;29.058;-110.966;2023-07-29T07:12:43;0.90;;;0.90;;
64244;SDS011;50584;29.058;-110.966;2023-07-29T07:15:09;1.27;;;1.17;;
64244;SDS011;50584;29.058;-110.966;2023-07-29T07:17:35;1.80;;;1.42;;
64244;SDS011;50584;29.058;-110.966;2023-07-29T07:20:01;4.45;;;1.50;;
64244;SDS011;50584;29.058;-110.966;2023-07-29T07:22:27;1.50;;;1.27;;
64244;SDS011;50584;29.058;-110.966;2023-07-29T07:24:52;2.63;;;1.20;;
64244;SDS011;50584;29.058;-110.966;2023-07-29T07:27:18;2.85;;;1.50;;
64244;SDS011;50584;29.058;-110.966;2023-07-29T07:29:44;1.15;;;1.02;;
64244;SDS011;50584;29.058;-110.966;2023-07-29T07:32:10;4.03;;;1.30;;
64244;SDS011;50584;29.058;-110.966;2023-07-29T07:34:35;1.60;;;1.30;;
64244;SDS011;50584;29.058;-110.966;2023-07-29T07:37:01;3.47;;;1.40;;
64244;SDS011;50584;29.058;-110.966;2023-07-29T07:39:29;1.20;;;1.10;;
64244;SDS011;50584;29.058;-110.966;2023-07-29T07:41:54;1.92;;;1.40;;
64244;SDS011;50584;29.058;-110.966;2023-07-29T07:44:20;2.17;;;1.40;;
64244;SDS011;50584;29.058;-110.966;2023-07-29T07:46:46;1.45;;;1.35;;
64244;SDS011;50584;29.058;-110.966;2023-07-29T07:49:12;1.30;;;1.17;;
64244;SDS011;50584;29.058;-110.966;2023-07-29T07:51:38;2.33;;;1.33;;
64244;SDS011;50584;29.058;-110.966;2023-07-29T07:54:04;2.80;;;1.27;;
64244;SDS011;50584;29.058;-110.966;2023-07-29T07:56:30;4.97;;;1.38;;
64244;SDS011;50584;29.058;-110.966;2023-07-29T07:58:56;2.75;;;1.30;;
64244;SDS011;50584;29.058;-110.966;2023-07-29T08:01:21;2.13;;;1.40;;
64244;SDS011;50584;29.058;-110.966;2023-07-29T08:03:47;2.20;;;1.25;;
64244;SDS011;50584;29.058;-110.966;2023-07-29T08:06:13;3.15;;;1.60;;
64244;SDS011;50584;29.058;-110.966;2023-07-29T08:08:39;1.73;;;1.40;;
64244;SDS011;50584;29.058;-110.966;2023-07-29T08:11:04;4.28;;;1.40;;
64244;SDS011;50584;29.058;-110.966;2023-07-29T08:13:30;4.90;;;1.60;;
64244;SDS011;50584;29.058;-110.966;2023-07-29T08:15:56;2.08;;;1.48;;
64244;SDS011;50584;29.058;-110.966;2023-07-29T08:18:22;1.52;;;1.30;;
64244;SDS011;50584;29.058;-110.966;2023-07-29T08:20:51;1.52;;;1.40;;
64244;SDS011;50584;29.058;-110.966;2023-07-29T08:25:43;1.35;;;1.10;;
64244;SDS011;50584;29.058;-110.966;2023-07-29T08:28:09;1.30;;;1.20;;
64244;SDS011;50584;29.058;-110.966;2023-07-29T08:30:36;1.30;;;1.20;;
64244;SDS011;50584;29.058;-110.966;2023-07-29T08:33:02;4.05;;;1.27;;
64244;SDS011;50584;29.058;-110.966;2023-07-29T08:35:28;3.70;;;1.20;;
64244;SDS011;50584;29.058;-110.966;2023-07-29T08:37:53;2.45;;;1.17;;
64244;SDS011;50584;29.058;-110.966;2023-07-29T08:40:22;1.10;;;1.00;;
64244;SDS011;50584;29.058;-110.966;2023-07-29T08:42:51;1.23;;;1.13;;
64244;SDS011;50584;29.058;-110.966;2023-07-29T08:45:17;1.27;;;1.17;;
64244;SDS011;50584;29.058;-110.966;2023-07-29T08:47:43;3.60;;;1.20;;
64244;SDS011;50584;29.058;-110.966;2023-07-29T08:50:09;3.45;;;1.52;;
64244;SDS011;50584;29.058;-110.966;2023-07-29T08:52:35;4.80;;;1.25;;
64244;SDS011;50584;29.058;-110.966;2023-07-29T08:55:01;1.58;;;1.10;;
64244;SDS011;50584;29.058;-110.966;2023-07-29T08:57:27;2.45;;;1.40;;
64244;SDS011;50584;29.058;-110.966;2023-07-29T08:59:53;1.10;;;1.10;;
64244;SDS011;50584;29.058;-110.966;2023-07-29T09:02:20;2.20;;;1.10;;
64244;SDS011;50584;29.058;-110.966;2023-07-29T09:04:46;5.20;;;1.30;;
64244;SDS011;50584;29.058;-110.966;2023-07-29T09:07:12;1.30;;;1.20;;
64244;SDS011;50584;29.058;-110.966;2023-07-29T09:09:38;1.38;;;1.27;;
64244;SDS011;50584;29.058;-110.966;2023-07-29T09:12:03;1.48;;;1.30;;
64244;SDS011;50584;29.058;-110.966;2023-07-29T09:14:30;1.67;;;1.30;;
64244;SDS011;50584;29.058;-110.966;2023-07-29T09:16:55;1.50;;;1.40;;
64244;SDS011;50584;29.058;-110.966;2023-07-29T09:19:24;2.10;;;1.20;;
64244;SDS011;50584;29.058;-110.966;2023-07-29T09:21:50;1.40;;;1.30;;
64244;SDS011;50584;29.058;-110.966;2023-07-29T09:24:16;2.03;;;1.30;;
64244;SDS011;50584;29.058;-110.966;2023-07-29T09:26:48;1.30;;;1.20;;
64244;SDS011;50584;29.058;-110.966;2023-07-29T09:29:14;1.48;;;1.38;;
64244;SDS011;50584;29.058;-110.966;2023-07-29T09:31:40;1.60;;;1.08;;
64244;SDS011;50584;29.058;-110.966;2023-07-29T09:34:06;1.20;;;1.20;;
64244;SDS011;50584;29.058;-110.966;2023-07-29T09:36:32;1.77;;;1.23;;
64244;SDS011;50584;29.058;-110.966;2023-07-29T09:38:59;1.20;;;1.20;;
64244;SDS011;50584;29.058;-110.966;2023-07-29T09:41:25;2.13;;;1.40;;
64244;SDS011;50584;29.058;-110.966;2023-07-29T09:43:58;1.80;;;1.35;;
64244;SDS011;50584;29.058;-110.966;2023-07-29T09:46:25;1.50;;;1.40;;
64244;SDS011;50584;29.058;-110.966;2023-07-29T09:48:52;3.10;;;1.20;;
64244;SDS011;50584;29.058;-110.966;2023-07-29T09:51:19;5.55;;;1.40;;
64244;SDS011;50584;29.058;-110.966;2023-07-29T09:53:46;5.75;;;2.00;;
64244;SDS011;50584;29.058;-110.966;2023-07-29T09:56:12;8.23;;;1.70;;
64244;SDS011;50584;29.058;-110.966;2023-07-29T09:58:38;6.25;;;1.50;;
64244;SDS011;50584;29.058;-110.966;2023-07-29T10:01:05;1.83;;;1.30;;
64244;SDS011;50584;29.058;-110.966;2023-07-29T10:03:31;1.52;;;1.42;;
64244;SDS011;50584;29.058;-110.966;2023-07-29T10:06:07;2.15;;;1.85;;
64244;SDS011;50584;29.058;-110.966;2023-07-29T10:08:33;6.10;;;2.08;;
64244;SDS011;50584;29.058;-110.966;2023-07-29T10:11:06;3.50;;;1.85;;
64244;SDS011;50584;29.058;-110.966;2023-07-29T10:13:32;2.53;;;1.73;;
64244;SDS011;50584;29.058;-110.966;2023-07-29T10:15:59;4.13;;;1.80;;
64244;SDS011;50584;29.058;-110.966;2023-07-29T10:18:27;4.15;;;1.70;;
64244;SDS011;50584;29.058;-110.966;2023-07-29T10:20:53;5.22;;;1.52;;
64244;SDS011;50584;29.058;-110.966;2023-07-29T10:23:19;3.17;;;1.50;;
64244;SDS011;50584;29.058;-110.966;2023-07-29T10:25:49;3.85;;;1.58;;
64244;SDS011;50584;29.058;-110.966;2023-07-29T10:28:15;2.83;;;1.73;;
64244;SDS011;50584;29.058;-110.966;2023-07-29T10:30:44;3.03;;;1.90;;
64244;SDS011;50584;29.058;-110.966;2023-07-29T10:33:10;2.83;;;1.85;;
64244;SDS011;50584;29.058;-110.966;2023-07-29T10:35:36;3.70;;;1.52;;
64244;SDS011;50584;29.058;-110.966;2023-07-29T10:38:02;2.40;;;1.58;;
64244;SDS011;50584;29.058;-110.966;2023-07-29T10:40:51;2.85;;;1.75;;
64244;SDS011;50584;29.058;-110.966;2023-07-29T10:43:19;5.10;;;2.05;;
64244;SDS011;50584;29.058;-110.966;2023-07-29T10:45:49;3.58;;;1.92;;
64244;SDS011;50584;29.058;-110.966;2023-07-29T10:48:57;4.07;;;1.88;;
64244;SDS011;50584;29.058;-110.966;2023-07-29T10:53:52;2.65;;;1.70;;
64244;SDS011;50584;29.058;-110.966;2023-07-29T10:56:28;2.55;;;1.70;;
64244;SDS011;50584;29.058;-110.966;2023-07-29T11:01:38;2.00;;;1.88;;
64244;SDS011;50584;29.058;-110.966;2023-07-29T11:09:45;2.78;;;2.53;;
64244;SDS011;50584;29.058;-110.966;2023-07-29T11:15:07;25.13;;;3.20;;
64244;SDS011;50584;29.058;-110.966;2023-07-29T11:20:06;3.65;;;2.90;;
64244;SDS011;50584;29.058;-110.966;2023-07-29T11:22:33;6.65;;;3.35;;
64244;SDS011;50584;29.058;-110.966;2023-07-29T11:24:59;3.15;;;2.85;;
64244;SDS011;50584;29.058;-110.966;2023-07-29T11:27:24;4.07;;;3.17;;
64244;SDS011;50584;29.058;-110.966;2023-07-29T11:29:50;3.58;;;3.28;;
64244;SDS011;50584;29.058;-110.966;2023-07-29T11:32:16;5.18;;;3.30;;
64244;SDS011;50584;29.058;-110.966;2023-07-29T11:34:42;3.90;;;2.83;;
64244;SDS011;50584;29.058;-110.966;2023-07-29T11:37:11;5.43;;;3.03;;
64244;SDS011;50584;29.058;-110.966;2023-07-29T11:39:40;6.60;;;3.22;;
64244;SDS011;50584;29.058;-110.966;2023-07-29T11:42:06;5.30;;;3.33;;
64244;SDS011;50584;29.058;-110.966;2023-07-29T11:44:32;4.68;;;3.20;;
64244;SDS011;50584;29.058;-110.966;2023-07-29T11:46:58;3.65;;;3.30;;
64244;SDS011;50584;29.058;-110.966;2023-07-29T11:49:23;4.00;;;3.25;;
64244;SDS011;50584;29.058;-110.966;2023-07-29T11:51:49;4.63;;;3.20;;
64244;SDS011;50584;29.058;-110.966;2023-07-29T11:54:15;3.22;;;3.00;;
64244;SDS011;50584;29.058;-110.966;2023-07-29T11:56:41;3.85;;;3.10;;
64244;SDS011;50584;29.058;-110.966;2023-07-29T11:59:07;5.40;;;3.50;;
64244;SDS011;50584;29.058;-110.966;2023-07-29T12:01:33;8.10;;;3.15;;
64244;SDS011;50584;29.058;-110.966;2023-07-29T12:03:58;8.35;;;3.60;;
64244;SDS011;50584;29.058;-110.966;2023-07-29T12:06:25;4.32;;;2.80;;
64244;SDS011;50584;29.058;-110.966;2023-07-29T12:08:51;5.40;;;3.20;;
64244;SDS011;50584;29.058;-110.966;2023-07-29T12:11:17;3.13;;;2.80;;
64244;SDS011;50584;29.058;-110.966;2023-07-29T12:13:43;4.60;;;2.92;;
64244;SDS011;50584;29.058;-110.966;2023-07-29T12:16:09;7.00;;;3.38;;
64244;SDS011;50584;29.058;-110.966;2023-07-29T12:18:35;6.60;;;3.33;;
64244;SDS011;50584;29.058;-110.966;2023-07-29T12:21:01;7.28;;;3.45;;
64244;SDS011;50584;29.058;-110.966;2023-07-29T12:23:28;6.82;;;3.03;;
64244;SDS011;50584;29.058;-110.966;2023-07-29T12:25:57;8.82;;;2.97;;
64244;SDS011;50584;29.058;-110.966;2023-07-29T12:28:24;7.40;;;3.42;;
64244;SDS011;50584;29.058;-110.966;2023-07-29T12:30:56;5.55;;;3.47;;
64244;SDS011;50584;29.058;-110.966;2023-07-29T12:33:35;10.05;;;2.90;;
64244;SDS011;50584;29.058;-110.966;2023-07-29T12:36:01;11.45;;;3.15;;
64244;SDS011;50584;29.058;-110.966;2023-07-29T12:38:27;6.25;;;3.08;;
64244;SDS011;50584;29.058;-110.966;2023-07-29T12:40:53;6.10;;;3.03;;
64244;SDS011;50584;29.058;-110.966;2023-07-29T12:43:19;7.30;;;2.88;;
64244;SDS011;50584;29.058;-110.966;2023-07-29T12:45:45;7.13;;;3.22;;
64244;SDS011;50584;29.058;-110.966;2023-07-29T12:48:11;3.30;;;2.97;;
64244;SDS011;50584;29.058;-110.966;2023-07-29T12:50:37;4.28;;;3.33;;
64244;SDS011;50584;29.058;-110.966;2023-07-29T12:53:07;7.85;;;3.40;;
64244;SDS011;50584;29.058;-110.966;2023-07-29T12:55:33;5.03;;;2.80;;
64244;SDS011;50584;29.058;-110.966;2023-07-29T12:57:59;9.48;;;3.38;;
64244;SDS011;50584;29.058;-110.966;2023-07-29T13:00:25;4.78;;;3.08;;
64244;SDS011;50584;29.058;-110.966;2023-07-29T13:02:50;5.53;;;3.25;;
64244;SDS011;50584;29.058;-110.966;2023-07-29T13:05:16;5.10;;;2.90;;
64244;SDS011;50584;29.058;-110.966;2023-07-29T13:07:42;4.13;;;3.20;;
64244;SDS011;50584;29.058;-110.966;2023-07-29T13:10:09;4.93;;;3.10;;
64244;SDS011;50584;29.058;-110.966;2023-07-29T13:12:35;3.35;;;2.80;;
64244;SDS011;50584;29.058;-110.966;2023-07-29T13:15:01;3.20;;;2.90;;
64244;SDS011;50584;29.058;-110.966;2023-07-29T13:17:27;11.88;;;2.90;;
64244;SDS011;50584;29.058;-110.966;2023-07-29T13:19:52;10.25;;;3.25;;
64244;SDS011;50584;29.058;-110.966;2023-07-29T13:22:19;8.65;;;2.92;;
64244;SDS011;50584;29.058;-110.966;2023-07-29T13:24:45;8.68;;;2.80;;
64244;SDS011;50584;29.058;-110.966;2023-07-29T13:27:11;27.98;;;3.78;;
64244;SDS011;50584;29.058;-110.966;2023-07-29T13:29:37;6.72;;;3.15;;
64244;SDS011;50584;29.058;-110.966;2023-07-29T13:32:02;3.85;;;2.80;;
64244;SDS011;50584;29.058;-110.966;2023-07-29T13:34:28;10.48;;;3.05;;
64244;SDS011;50584;29.058;-110.966;2023-07-29T13:36:54;11.57;;;3.08;;
64244;SDS011;50584;29.058;-110.966;2023-07-29T13:39:20;3.47;;;3.00;;
64244;SDS011;50584;29.058;-110.966;2023-07-29T13:41:45;6.80;;;2.60;;
64244;SDS011;50584;29.058;-110.966;2023-07-29T13:44:11;3.58;;;2.63;;
64244;SDS011;50584;29.058;-110.966;2023-07-29T13:46:37;8.75;;;2.50;;
64244;SDS011;50584;29.058;-110.966;2023-07-29T13:49:03;4.00;;;2.35;;
64244;SDS011;50584;29.058;-110.966;2023-07-29T13:51:28;3.33;;;2.45;;
64244;SDS011;50584;29.058;-110.966;2023-07-29T13:53:54;3.80;;;2.38;;
64244;SDS011;50584;29.058;-110.966;2023-07-29T13:56:21;5.95;;;2.60;;
64244;SDS011;50584;29.058;-110.966;2023-07-29T13:58:47;6.30;;;2.53;;
64244;SDS011;50584;29.058;-110.966;2023-07-29T14:01:13;3.90;;;2.45;;
64244;SDS011;50584;29.058;-110.966;2023-07-29T14:03:39;3.30;;;2.45;;
64244;SDS011;50584;29.058;-110.966;2023-07-29T14:06:04;8.63;;;2.55;;
64244;SDS011;50584;29.058;-110.966;2023-07-29T14:08:31;4.35;;;2.58;;
64244;SDS011;50584;29.058;-110.966;2023-07-29T14:10:56;4.60;;;2.55;;
64244;SDS011;50584;29.058;-110.966;2023-07-29T14:13:22;5.93;;;2.35;;
64244;SDS011;50584;29.058;-110.966;2023-07-29T14:15:48;4.82;;;2.50;;
64244;SDS011;50584;29.058;-110.966;2023-07-29T14:18:14;3.95;;;2.22;;
64244;SDS011;50584;29.058;-110.966;2023-07-29T14:20:39;4.75;;;2.22;;
64244;SDS011;50584;29.058;-110.966;2023-07-29T14:23:05;3.75;;;2.28;;
64244;SDS011;50584;29.058;-110.966;2023-07-29T14:25:31;5.95;;;2.42;;
64244;SDS011;50584;29.058;-110.966;2023-07-29T14:27:57;2.67;;;2.50;;